createdAt,value
2023-02-16T00:01:52.372Z,0.20
2023-02-16T00:04:22.750Z,0.20
2023-02-16T00:06:52.600Z,0.20
2023-02-16T00:09:21.688Z,0.20
2023-02-16T00:12:08.308Z,0.20
2023-02-16T00:14:39.957Z,0.20
2023-02-16T00:17:08.438Z,0.20
2023-02-16T00:19:38.613Z,0.20
2023-02-16T00:22:08.440Z,0.20
2023-02-16T00:24:37.740Z,0.20
2023-02-16T00:27:14.315Z,0.20
2023-02-16T00:29:45.850Z,0.20
2023-02-16T00:32:15.523Z,0.20
2023-02-16T00:34:45.977Z,0.30
2023-02-16T00:37:15.373Z,0.20
2023-02-16T00:39:44.973Z,0.27
2023-02-16T00:42:20.625Z,0.20
2023-02-16T00:44:52.690Z,0.30
2023-02-16T00:47:23.882Z,0.30
2023-02-16T00:49:54.602Z,0.20
2023-02-16T00:52:34.666Z,0.30
2023-02-16T00:55:05.208Z,0.30
2023-02-16T00:57:37.037Z,0.30
2023-02-16T01:00:13.740Z,0.30
2023-02-16T01:02:42.606Z,0.27
2023-02-16T01:05:10.930Z,0.20
2023-02-16T01:07:56.802Z,0.20
2023-02-16T01:10:43.376Z,0.20
2023-02-16T01:13:12.842Z,0.27
2023-02-16T01:15:43.613Z,0.20
2023-02-16T01:18:15.461Z,0.20
2023-02-16T01:20:45.536Z,0.20
2023-02-16T01:23:13.950Z,0.20
2023-02-16T01:25:43.433Z,0.20
2023-02-16T01:28:20.047Z,0.30
2023-02-16T01:30:50.038Z,0.27
2023-02-16T01:33:18.718Z,0.20
2023-02-16T01:35:47.393Z,0.30
2023-02-16T01:38:20.075Z,0.20
2023-02-16T01:40:57.389Z,0.30
2023-02-16T01:43:30.503Z,0.30
2023-02-16T01:46:04.468Z,0.30
2023-02-16T01:48:33.780Z,0.30
2023-02-16T01:51:08.103Z,0.20
2023-02-16T01:53:41.219Z,0.30
2023-02-16T01:56:19.962Z,0.20
2023-02-16T01:58:51.545Z,0.30
2023-02-16T02:01:41.482Z,0.30
2023-02-16T02:04:39.972Z,0.30
2023-02-16T02:07:09.579Z,0.30
2023-02-16T02:09:44.261Z,0.30
2023-02-16T02:12:19.700Z,0.30
2023-02-16T02:14:49.246Z,0.30
2023-02-16T02:17:22.517Z,0.20
2023-02-16T02:20:00.801Z,0.20
2023-02-16T02:23:19.463Z,0.20
2023-02-16T02:26:21.636Z,0.30
2023-02-16T02:29:02.048Z,0.30
2023-02-16T02:31:44.777Z,0.30
2023-02-16T02:34:24.017Z,0.20
2023-02-16T02:37:02.026Z,0.30
2023-02-16T02:39:41.003Z,0.30
2023-02-16T02:42:14.960Z,0.23
2023-02-16T02:44:53.266Z,0.20
2023-02-16T02:47:22.413Z,0.30
2023-02-16T02:49:51.973Z,0.20
2023-02-16T02:52:21.001Z,0.20
2023-02-16T02:55:08.010Z,0.30
2023-02-16T02:57:59.201Z,0.27
2023-02-16T03:00:43.905Z,0.30
2023-02-16T03:03:17.115Z,0.30
2023-02-16T03:05:49.020Z,0.33
2023-02-16T03:08:20.147Z,0.20
2023-02-16T03:11:08.952Z,0.30
2023-02-16T03:13:40.931Z,0.30
2023-02-16T03:16:14.120Z,0.30
2023-02-16T03:19:02.190Z,0.30
2023-02-16T03:21:48.278Z,0.30
2023-02-16T03:24:41.749Z,0.20
2023-02-16T03:27:28.385Z,0.30
2023-02-16T03:29:58.052Z,0.30
2023-02-16T03:32:28.088Z,0.30
2023-02-16T03:34:56.434Z,0.30
2023-02-16T03:37:25.164Z,0.30
2023-02-16T03:40:11.125Z,0.20
2023-02-16T03:42:39.418Z,0.30
2023-02-16T03:45:08.822Z,0.30
2023-02-16T03:47:38.527Z,0.30
2023-02-16T03:50:08.194Z,0.30
2023-02-16T03:52:36.575Z,0.30
2023-02-16T03:55:05.042Z,0.30
2023-02-16T03:57:33.514Z,0.20
2023-02-16T04:00:01.830Z,0.30
2023-02-16T04:02:30.663Z,0.30
2023-02-16T04:05:00.433Z,0.30
2023-02-16T04:07:31.449Z,0.30
2023-02-16T04:10:01.075Z,0.20
2023-02-16T04:12:37.162Z,0.20
2023-02-16T04:15:07.085Z,0.20
2023-02-16T04:17:35.617Z,0.27
2023-02-16T04:20:06.538Z,0.30
2023-02-16T04:22:34.865Z,0.30
2023-02-16T04:25:03.256Z,0.30
2023-02-16T04:27:31.586Z,0.20
2023-02-16T04:29:59.916Z,0.20
2023-02-16T04:32:28.376Z,0.30
2023-02-16T04:34:56.676Z,0.20
2023-02-16T04:37:26.380Z,0.30
2023-02-16T04:39:54.690Z,0.20
2023-02-16T04:42:23.050Z,0.20
2023-02-16T04:44:51.434Z,0.20
2023-02-16T04:47:19.809Z,0.20
2023-02-16T04:49:50.164Z,0.20
2023-02-16T04:52:18.676Z,0.20
2023-02-16T04:54:48.451Z,0.20
2023-02-16T04:57:16.965Z,0.20
2023-02-16T04:59:45.225Z,0.20
2023-02-16T05:02:13.599Z,0.20
2023-02-16T05:04:42.308Z,0.20
2023-02-16T05:07:10.721Z,0.20
2023-02-16T05:09:39.062Z,0.20
2023-02-16T05:12:26.531Z,0.20
2023-02-16T05:14:54.892Z,0.20
2023-02-16T05:17:25.001Z,0.20
2023-02-16T05:19:55.619Z,0.20
2023-02-16T05:22:24.100Z,0.20
2023-02-16T05:24:52.927Z,0.20
2023-02-16T05:27:24.714Z,0.20
2023-02-16T05:29:53.461Z,0.20
2023-02-16T05:32:21.811Z,0.20
2023-02-16T05:34:50.240Z,0.20
2023-02-16T05:37:19.704Z,0.20
2023-02-16T05:39:48.222Z,0.20
2023-02-16T05:42:16.521Z,0.20
2023-02-16T05:44:46.203Z,0.30
2023-02-16T05:47:14.556Z,0.20
2023-02-16T05:49:42.877Z,0.20
2023-02-16T05:52:11.188Z,0.20
2023-02-16T05:54:39.508Z,0.20
2023-02-16T05:57:07.853Z,0.20
2023-02-16T05:59:36.124Z,0.20
2023-02-16T06:02:05.835Z,0.20
2023-02-16T06:04:34.139Z,0.20
2023-02-16T06:07:02.741Z,0.20
2023-02-16T06:09:31.383Z,0.20
2023-02-16T06:11:59.742Z,0.20
2023-02-16T06:14:28.044Z,0.20
2023-02-16T06:16:56.667Z,0.20
2023-02-16T06:19:26.509Z,0.30
2023-02-16T06:21:54.867Z,0.20
2023-02-16T06:24:23.139Z,0.20
2023-02-16T06:26:51.445Z,0.20
2023-02-16T06:29:19.695Z,0.20
2023-02-16T06:31:48.235Z,0.20
2023-02-16T06:34:16.687Z,0.20
2023-02-16T06:36:46.385Z,0.20
2023-02-16T06:39:14.714Z,0.20
2023-02-16T06:41:43.000Z,0.20
2023-02-16T06:44:13.558Z,0.20
2023-02-16T06:46:42.834Z,0.20
2023-02-16T06:49:13.812Z,0.20
2023-02-16T06:51:42.506Z,0.20
2023-02-16T06:54:12.506Z,0.20
2023-02-16T06:56:40.996Z,0.20
2023-02-16T06:59:09.377Z,0.20
2023-02-16T07:01:37.724Z,0.20
2023-02-16T07:04:06.160Z,0.20
2023-02-16T07:06:34.654Z,0.20
2023-02-16T07:09:03.499Z,0.20
2023-02-16T07:11:33.209Z,0.20
2023-02-16T07:14:01.540Z,0.20
2023-02-16T07:16:29.931Z,0.20
2023-02-16T07:18:58.423Z,0.20
2023-02-16T07:21:26.772Z,0.20
2023-02-16T07:23:55.300Z,0.20
2023-02-16T07:26:23.748Z,0.20
2023-02-16T07:28:53.644Z,0.20
2023-02-16T07:31:22.123Z,0.20
2023-02-16T07:33:50.488Z,0.20
2023-02-16T07:36:18.869Z,0.20
2023-02-16T07:38:47.220Z,0.20
2023-02-16T07:41:15.756Z,0.20
2023-02-16T07:43:44.267Z,0.20
2023-02-16T07:46:13.935Z,0.20
2023-02-16T07:48:42.235Z,0.20
2023-02-16T07:51:10.650Z,0.20
2023-02-16T07:53:38.921Z,0.20
2023-02-16T07:56:07.670Z,0.20
2023-02-16T07:58:36.753Z,0.20
2023-02-16T08:01:10.260Z,0.20
2023-02-16T08:03:40.393Z,0.20
2023-02-16T08:06:09.529Z,0.10
2023-02-16T08:08:38.727Z,0.20
2023-02-16T08:11:11.069Z,0.20
2023-02-16T08:13:39.403Z,0.20
2023-02-16T08:16:11.058Z,0.20
2023-02-16T08:18:42.345Z,0.20
2023-02-16T08:21:14.407Z,0.10
2023-02-16T08:23:47.536Z,0.20
2023-02-16T08:26:18.246Z,0.20
2023-02-16T08:28:47.641Z,0.20
2023-02-16T08:31:17.084Z,0.10
2023-02-16T08:33:47.992Z,0.20
2023-02-16T08:36:20.517Z,0.20
2023-02-16T08:38:50.676Z,0.20
2023-02-16T08:41:19.882Z,0.20
2023-02-16T08:43:48.586Z,0.10
2023-02-16T08:46:17.457Z,0.20
2023-02-16T08:48:47.479Z,0.10
2023-02-16T08:51:17.671Z,0.20
2023-02-16T08:53:46.629Z,0.20
2023-02-16T08:56:16.844Z,0.13
2023-02-16T08:58:45.479Z,0.20
2023-02-16T09:01:16.350Z,0.20
2023-02-16T09:03:48.489Z,0.10
2023-02-16T09:06:20.349Z,0.20
2023-02-16T09:08:54.993Z,0.10
2023-02-16T09:11:24.548Z,0.10
2023-02-16T09:13:53.227Z,0.20
2023-02-16T09:16:23.906Z,0.20
2023-02-16T09:18:53.708Z,0.20
2023-02-16T09:21:25.467Z,0.10
2023-02-16T09:23:57.750Z,0.20
2023-02-16T09:26:26.890Z,0.20
2023-02-16T09:28:56.395Z,0.20
2023-02-16T09:31:28.964Z,0.20
2023-02-16T09:34:02.109Z,0.13
2023-02-16T09:36:30.958Z,0.20
2023-02-16T09:38:59.683Z,0.10
2023-02-16T09:41:33.513Z,0.20
2023-02-16T09:44:10.210Z,0.20
2023-02-16T09:46:39.142Z,0.10
2023-02-16T09:49:19.671Z,0.10
2023-02-16T09:52:00.004Z,0.20
2023-02-16T09:54:36.268Z,0.10
2023-02-16T09:57:13.254Z,0.10
2023-02-16T09:59:48.449Z,0.10
2023-02-16T10:02:39.153Z,0.10
2023-02-16T10:05:20.251Z,0.20
2023-02-16T10:08:09.447Z,0.30
2023-02-16T10:10:48.115Z,0.10
2023-02-16T10:13:26.780Z,0.20
2023-02-16T10:15:57.772Z,0.17
2023-02-16T10:18:31.013Z,0.10
2023-02-16T10:21:04.159Z,0.10
2023-02-16T10:23:45.373Z,0.17
2023-02-16T10:26:25.663Z,0.10
2023-02-16T10:28:56.303Z,0.10
2023-02-16T10:31:31.248Z,0.10
2023-02-16T10:34:18.296Z,0.10
2023-02-16T10:37:03.587Z,0.20
2023-02-16T10:39:40.868Z,0.17
2023-02-16T10:42:19.309Z,0.20
2023-02-16T10:44:52.330Z,0.10
2023-02-16T10:47:31.132Z,0.10
2023-02-16T10:49:59.652Z,0.10
2023-02-16T10:52:34.844Z,0.10
2023-02-16T10:55:03.474Z,0.10
2023-02-16T10:57:33.911Z,0.10
2023-02-16T11:00:08.156Z,0.10
2023-02-16T11:02:39.761Z,0.20
2023-02-16T11:05:32.870Z,0.10
2023-02-16T11:08:03.154Z,0.10
2023-02-16T11:10:41.386Z,0.10
2023-02-16T11:13:23.257Z,0.10
2023-02-16T11:15:54.882Z,0.10
2023-02-16T11:18:36.457Z,0.10
2023-02-16T11:21:06.202Z,0.10
2023-02-16T11:23:37.076Z,0.10
2023-02-16T11:26:08.877Z,0.10
2023-02-16T11:28:39.791Z,0.10
2023-02-16T11:31:19.084Z,0.10
2023-02-16T11:33:58.552Z,0.10
2023-02-16T11:36:33.169Z,0.10
2023-02-16T11:39:06.935Z,0.10
2023-02-16T11:41:36.741Z,0.10
2023-02-16T11:44:05.613Z,0.10
2023-02-16T11:46:41.679Z,0.10
2023-02-16T11:49:22.783Z,0.20
2023-02-16T11:51:51.143Z,0.10
2023-02-16T11:54:21.994Z,0.10
2023-02-16T11:57:04.332Z,0.10
2023-02-16T11:59:37.722Z,0.10
2023-02-16T12:02:40.326Z,0.10
2023-02-16T12:05:26.077Z,0.15
2023-02-16T12:08:10.417Z,0.10
2023-02-16T12:10:48.001Z,0.10
2023-02-16T12:13:24.690Z,0.10
2023-02-16T12:15:59.161Z,0.10
2023-02-16T12:18:42.755Z,0.20
2023-02-16T12:21:21.724Z,0.10
2023-02-16T12:24:02.118Z,0.10
2023-02-16T12:26:45.635Z,0.10
2023-02-16T12:29:26.305Z,0.10
2023-02-16T12:32:07.352Z,0.10
2023-02-16T12:34:51.446Z,0.10
2023-02-16T12:37:29.382Z,0.20
2023-02-16T12:40:10.540Z,0.10
2023-02-16T12:42:57.147Z,0.10
2023-02-16T12:45:31.926Z,0.10
2023-02-16T12:48:07.409Z,0.10
2023-02-16T12:50:39.576Z,0.10
2023-02-16T12:53:14.967Z,0.10
2023-02-16T12:55:51.090Z,0.17
2023-02-16T12:58:24.321Z,0.10
2023-02-16T13:00:57.323Z,0.15
2023-02-16T13:03:31.080Z,0.10
2023-02-16T13:06:08.209Z,0.10
2023-02-16T13:08:42.310Z,0.10
2023-02-16T13:11:18.553Z,0.10
2023-02-16T13:13:49.662Z,0.10
2023-02-16T13:16:30.192Z,0.10
2023-02-16T13:18:59.510Z,0.10
2023-02-16T13:21:54.283Z,0.10
2023-02-16T13:24:35.872Z,0.10
2023-02-16T13:27:23.328Z,0.10
2023-02-16T13:30:08.915Z,0.10
2023-02-16T13:32:59.963Z,0.10
2023-02-16T13:36:00.838Z,0.10
2023-02-16T13:38:57.830Z,0.10
2023-02-16T13:41:46.003Z,0.10
2023-02-16T13:44:18.277Z,0.10
2023-02-16T13:46:52.785Z,0.10
2023-02-16T13:49:36.091Z,0.10
2023-02-16T13:52:04.786Z,0.10
2023-02-16T13:54:36.497Z,0.10
2023-02-16T13:57:05.586Z,0.20
2023-02-16T14:00:00.323Z,0.10
2023-02-16T14:02:56.394Z,0.10
2023-02-16T14:05:28.656Z,0.10
2023-02-16T14:08:27.584Z,0.10
2023-02-16T14:11:10.722Z,0.10
2023-02-16T14:13:51.142Z,0.10
2023-02-16T14:16:30.452Z,0.10
2023-02-16T14:19:02.357Z,0.10
2023-02-16T14:21:39.352Z,0.10
2023-02-16T14:24:12.382Z,0.10
2023-02-16T14:26:55.930Z,0.10
2023-02-16T14:29:28.986Z,0.10
2023-02-16T14:32:02.712Z,0.10
2023-02-16T14:34:39.604Z,0.10
2023-02-16T14:37:36.792Z,0.20
2023-02-16T14:40:22.549Z,0.10
2023-02-16T14:42:54.935Z,0.10
2023-02-16T14:46:06.176Z,0.10
2023-02-16T14:49:14.930Z,0.10
2023-02-16T14:52:09.104Z,0.10
2023-02-16T14:55:07.182Z,0.10
2023-02-16T14:57:39.142Z,0.10
2023-02-16T15:00:26.829Z,0.10
2023-02-16T15:02:58.055Z,0.10
2023-02-16T15:05:29.682Z,0.10
2023-02-16T15:08:09.785Z,0.10
2023-02-16T15:10:40.701Z,0.10
2023-02-16T15:13:09.798Z,0.10
2023-02-16T15:15:45.848Z,0.10
2023-02-16T15:18:18.289Z,0.10
2023-02-16T15:20:51.134Z,0.10
2023-02-16T15:23:22.524Z,0.10
2023-02-16T15:25:56.832Z,0.10
2023-02-16T15:28:27.134Z,0.10
2023-02-16T15:30:58.320Z,0.10
2023-02-16T15:33:38.252Z,0.10
2023-02-16T15:36:12.021Z,0.10
2023-02-16T15:38:43.559Z,0.10
2023-02-16T15:41:16.689Z,0.10
2023-02-16T15:43:47.798Z,0.20
2023-02-16T15:46:24.383Z,0.10
2023-02-16T15:48:52.741Z,0.10
2023-02-16T15:51:25.736Z,0.10
2023-02-16T15:53:57.986Z,0.10
2023-02-16T15:56:45.223Z,0.10
2023-02-16T15:59:35.282Z,0.10
2023-02-16T16:02:12.120Z,0.10
2023-02-16T16:04:42.941Z,0.10
2023-02-16T16:07:15.495Z,0.10
2023-02-16T16:09:46.328Z,0.10
2023-02-16T16:12:17.651Z,0.10
2023-02-16T16:14:51.653Z,0.10
2023-02-16T16:17:24.218Z,0.10
2023-02-16T16:19:52.581Z,0.10
2023-02-16T16:22:35.469Z,0.10
2023-02-16T16:25:38.304Z,0.10
2023-02-16T16:28:08.829Z,0.10
2023-02-16T16:30:43.752Z,0.10
2023-02-16T16:33:14.614Z,0.10
2023-02-16T16:35:45.810Z,0.10
2023-02-16T16:38:25.594Z,0.10
2023-02-16T16:40:57.941Z,0.10
2023-02-16T16:43:29.403Z,0.10
2023-02-16T16:46:12.983Z,0.10
2023-02-16T16:48:45.057Z,0.10
2023-02-16T16:51:15.538Z,0.10
2023-02-16T16:53:54.188Z,0.10
2023-02-16T16:56:24.381Z,0.10
2023-02-16T16:58:53.747Z,0.10
2023-02-16T17:01:22.713Z,0.10
2023-02-16T17:03:51.186Z,0.10
2023-02-16T17:06:20.246Z,0.10
2023-02-16T17:08:48.592Z,0.13
2023-02-16T17:11:26.064Z,0.10
2023-02-16T17:13:55.635Z,0.10
2023-02-16T17:16:27.997Z,0.10
2023-02-16T17:18:56.505Z,0.10
2023-02-16T17:21:24.834Z,0.10
2023-02-16T17:23:53.690Z,0.10
2023-02-16T17:26:22.493Z,0.10
2023-02-16T17:28:52.221Z,0.10
2023-02-16T17:31:20.786Z,0.10
2023-02-16T17:33:49.181Z,0.10
2023-02-16T17:36:18.948Z,0.10
2023-02-16T17:38:47.321Z,0.10
2023-02-16T17:41:22.074Z,0.10
2023-02-16T17:43:52.589Z,0.10
2023-02-16T17:46:23.647Z,0.10
2023-02-16T17:48:55.098Z,0.10
2023-02-16T17:51:25.466Z,0.10
2023-02-16T17:53:53.832Z,0.10
2023-02-16T17:56:24.751Z,0.10
2023-02-16T17:58:54.580Z,0.10
2023-02-16T18:01:23.074Z,0.10
2023-02-16T18:03:53.058Z,0.10
2023-02-16T18:06:28.154Z,0.10
2023-02-16T18:08:57.460Z,0.10
2023-02-16T18:11:25.835Z,0.10
2023-02-16T18:13:55.512Z,0.10
2023-02-16T18:16:27.578Z,0.10
2023-02-16T18:18:57.341Z,0.10
2023-02-16T18:21:25.802Z,0.10
2023-02-16T18:23:54.106Z,0.10
2023-02-16T18:26:23.734Z,0.10
2023-02-16T18:28:52.040Z,0.10
2023-02-16T18:31:21.887Z,0.20
2023-02-16T18:33:50.295Z,0.10
2023-02-16T18:36:18.821Z,0.10
2023-02-16T18:38:47.145Z,0.10
2023-02-16T18:41:15.509Z,0.10
2023-02-16T18:43:43.772Z,0.10
2023-02-16T18:46:12.429Z,0.10
2023-02-16T18:48:42.111Z,0.10
2023-02-16T18:51:12.054Z,0.10
2023-02-16T18:53:40.716Z,0.10
2023-02-16T18:56:10.622Z,0.10
2023-02-16T18:58:38.955Z,0.10
2023-02-16T19:01:14.165Z,0.10
2023-02-16T19:03:44.005Z,0.10
2023-02-16T19:06:12.314Z,0.20
2023-02-16T19:08:40.616Z,0.10
2023-02-16T19:11:08.936Z,0.10
2023-02-16T19:13:37.235Z,0.10
2023-02-16T19:16:06.726Z,0.10
2023-02-16T19:18:35.343Z,0.10
2023-02-16T19:21:07.910Z,0.10
2023-02-16T19:23:36.272Z,0.10
2023-02-16T19:26:07.640Z,0.10
2023-02-16T19:28:36.356Z,0.17
2023-02-16T19:31:06.952Z,0.10
2023-02-16T19:33:36.084Z,0.10
2023-02-16T19:36:09.795Z,0.10
2023-02-16T19:38:38.547Z,0.10
2023-02-16T19:41:10.731Z,0.10
2023-02-16T19:43:39.152Z,0.10
2023-02-16T19:46:07.762Z,0.10
2023-02-16T19:48:36.360Z,0.13
2023-02-16T19:51:08.100Z,0.10
2023-02-16T19:53:38.615Z,0.10
2023-02-16T19:56:08.481Z,0.10
2023-02-16T19:58:37.209Z,0.10
2023-02-16T20:01:09.616Z,0.10
2023-02-16T20:03:38.026Z,0.10
2023-02-16T20:06:19.264Z,0.10
2023-02-16T20:08:49.111Z,0.10
2023-02-16T20:11:19.559Z,0.20
2023-02-16T20:13:48.131Z,0.10
2023-02-16T20:16:16.981Z,0.10
2023-02-16T20:18:45.535Z,0.10
2023-02-16T20:21:17.375Z,0.10
2023-02-16T20:23:46.392Z,0.10
2023-02-16T20:26:16.560Z,0.10
2023-02-16T20:28:44.852Z,0.10
2023-02-16T20:31:15.062Z,0.10
2023-02-16T20:33:43.563Z,0.10
2023-02-16T20:36:12.258Z,0.20
2023-02-16T20:38:42.034Z,0.10
2023-02-16T20:41:10.495Z,0.10
2023-02-16T20:43:39.084Z,0.10
2023-02-16T20:46:09.221Z,0.13
2023-02-16T20:48:37.838Z,0.10
2023-02-16T20:51:08.651Z,0.10
2023-02-16T20:53:37.309Z,0.10
2023-02-16T20:56:09.514Z,0.10
2023-02-16T20:58:38.932Z,0.10
2023-02-16T21:01:12.602Z,0.10
2023-02-16T21:03:41.209Z,0.10
2023-02-16T21:06:09.675Z,0.10
2023-02-16T21:08:37.987Z,0.13
2023-02-16T21:11:07.999Z,0.10
2023-02-16T21:13:37.512Z,0.10
2023-02-16T21:16:07.146Z,0.20
2023-02-16T21:18:38.758Z,0.10
2023-02-16T21:21:09.098Z,0.10
2023-02-16T21:23:37.604Z,0.10
2023-02-16T21:26:08.789Z,0.10
2023-02-16T21:28:37.371Z,0.10
2023-02-16T21:31:08.461Z,0.10
2023-02-16T21:33:37.812Z,0.10
2023-02-16T21:36:07.728Z,0.10
2023-02-16T21:38:37.642Z,0.15
2023-02-16T21:41:26.428Z,0.10
2023-02-16T21:43:58.559Z,0.10
2023-02-16T21:46:27.887Z,0.10
2023-02-16T21:48:57.295Z,0.10
2023-02-16T21:51:28.026Z,0.10
2023-02-16T21:53:56.526Z,0.10
2023-02-16T21:56:30.221Z,0.10
2023-02-16T21:58:59.079Z,0.10
2023-02-16T22:01:28.974Z,0.10
2023-02-16T22:03:59.288Z,0.10
2023-02-16T22:06:29.784Z,0.10
2023-02-16T22:08:58.085Z,0.10
2023-02-16T22:11:28.221Z,0.10
2023-02-16T22:13:57.792Z,0.10
2023-02-16T22:16:27.911Z,0.10
2023-02-16T22:18:59.613Z,0.20
2023-02-16T22:21:28.550Z,0.10
2023-02-16T22:23:57.451Z,0.10
2023-02-16T22:26:29.271Z,0.10
2023-02-16T22:28:57.824Z,0.10
2023-02-16T22:31:27.951Z,0.10
2023-02-16T22:33:57.170Z,0.10
2023-02-16T22:36:25.489Z,0.10
2023-02-16T22:38:54.538Z,0.10
2023-02-16T22:41:23.994Z,0.10
2023-02-16T22:43:55.424Z,0.10
2023-02-16T22:46:25.227Z,0.20
2023-02-16T22:48:54.208Z,0.10
2023-02-16T22:51:23.040Z,0.10
2023-02-16T22:53:51.476Z,0.10
2023-02-16T22:56:20.969Z,0.13
2023-02-16T22:58:49.365Z,0.17
2023-02-16T23:01:21.190Z,0.20
2023-02-16T23:03:52.564Z,0.10
2023-02-16T23:06:22.415Z,0.10
2023-02-16T23:08:53.741Z,0.10
2023-02-16T23:11:22.093Z,0.10
2023-02-16T23:13:50.410Z,0.10
2023-02-16T23:16:22.775Z,0.10
2023-02-16T23:18:51.790Z,0.10
2023-02-16T23:21:23.046Z,0.10
2023-02-16T23:23:52.937Z,0.10
2023-02-16T23:26:23.006Z,0.10
2023-02-16T23:28:52.789Z,0.10
2023-02-16T23:31:23.395Z,0.10
2023-02-16T23:33:51.878Z,0.10
2023-02-16T23:36:20.323Z,0.10
2023-02-16T23:38:48.700Z,0.10
2023-02-16T23:41:17.666Z,0.10
2023-02-16T23:43:46.162Z,0.10
2023-02-16T23:46:14.626Z,0.10
2023-02-16T23:48:44.323Z,0.10
2023-02-16T23:51:12.666Z,0.10
2023-02-16T23:53:41.061Z,0.10
2023-02-16T23:56:13.358Z,0.10
2023-02-16T23:58:44.986Z,0.10
